Time;durP1;ratioP1;P1;durP2;ratioP2;P2;SDS_P1;SDS_P2;PMS_P1;PMS_P2;Temp;Humidity;BMP_temperature;BMP_pressure;BME280_temperature;BME280_humidity;BME280_pressure;Samples;Min_cycle;Max_cycle;Signal;HPM_P1;HPM_P2
2023/03/18 00:01:22;;;;;;;7.28;3.50;;;;;;;14.37;51.96;96711.16;5039572;28;20029;-32
2023/03/18 00:03:47;;;;;;;7.43;3.50;;;;;;;14.28;52.50;96719.28;5046782;28;20028;-33
2023/03/18 00:06:17;;;;;;;8.50;3.35;;;;;;;14.35;52.46;96705.38;5032443;28;20029;-32
2023/03/18 00:08:44;;;;;;;4.90;2.17;;;;;;;14.18;52.54;96714.97;5047328;28;20064;-32
2023/03/18 00:11:11;;;;;;;4.75;2.00;;;;;;;14.24;52.43;96697.59;5039841;28;20026;-32
2023/03/18 00:13:38;;;;;;;5.03;2.03;;;;;;;14.22;52.33;96699.22;5042368;28;20032;-33
2023/03/18 00:16:05;;;;;;;4.25;1.75;;;;;;;14.34;52.31;96704.63;5045950;28;20017;-32
2023/03/18 00:18:31;;;;;;;3.83;2.35;;;;;;;14.31;52.60;96704.78;5046137;28;20021;-32
2023/03/18 00:20:59;;;;;;;3.13;1.95;;;;;;;14.14;52.67;96698.72;5045020;28;20041;-33
2023/03/18 00:23:26;;;;;;;3.42;2.10;;;;;;;14.21;52.58;96697.72;5046568;28;20416;-34
2023/03/18 00:25:55;;;;;;;3.38;2.45;;;;;;;14.30;52.20;96705.97;5038004;28;20075;-32
2023/03/18 00:28:22;;;;;;;6.03;2.90;;;;;;;14.14;52.42;96706.16;5043121;28;20112;-32
2023/03/18 00:30:48;;;;;;;6.40;2.22;;;;;;;14.05;52.33;96701.38;5042863;28;20025;-32
2023/03/18 00:33:15;;;;;;;6.97;2.80;;;;;;;14.25;52.33;96701.84;5045228;28;20076;-33
2023/03/18 00:35:41;;;;;;;9.50;3.17;;;;;;;14.17;52.46;96694.34;5041740;28;20018;-32
2023/03/18 00:38:14;;;;;;;7.22;3.10;;;;;;;14.16;52.37;96690.88;5042887;28;20028;-32
2023/03/18 00:40:52;;;;;;;9.27;3.08;;;;;;;14.26;52.16;96692.44;5042772;28;20365;-32
2023/03/18 00:43:22;;;;;;;7.45;3.28;;;;;;;14.24;52.23;96685.91;5042471;28;20075;-32
2023/03/18 00:45:49;;;;;;;8.20;3.53;;;;;;;13.94;53.10;96690.09;5040788;28;20025;-32
2023/03/18 00:48:16;;;;;;;7.95;3.50;;;;;;;14.19;52.53;96686.50;5042701;28;20504;-32
2023/03/18 00:50:43;;;;;;;9.35;3.35;;;;;;;14.37;51.93;96692.81;5039022;28;20166;-32
2023/03/18 00:53:10;;;;;;;6.05;3.17;;;;;;;14.35;51.87;96689.03;5039304;28;20377;-32
2023/03/18 00:55:36;;;;;;;8.23;3.00;;;;;;;14.20;52.21;96680.59;5049492;28;20024;-33
2023/03/18 00:58:02;;;;;;;8.77;3.90;;;;;;;14.24;52.33;96685.91;5047359;28;20039;-33
2023/03/18 01:00:27;;;;;;;8.02;3.13;;;;;;;14.17;52.59;96680.72;5043905;28;20025;-32
2023/03/18 01:02:53;;;;;;;10.18;2.88;;;;;;;14.13;52.78;96680.84;5035119;28;20068;-33
2023/03/18 01:05:19;;;;;;;6.07;3.30;;;;;;;14.11;52.56;96677.03;5042665;28;20029;-33
2023/03/18 01:07:45;;;;;;;6.90;3.88;;;;;;;14.19;52.46;96676.34;5044236;28;21220;-32
2023/03/18 01:10:11;;;;;;;7.35;3.30;;;;;;;14.12;52.57;96675.81;5040897;28;20021;-32
2023/03/18 01:12:39;;;;;;;6.85;3.17;;;;;;;14.31;52.17;96680.97;5033701;28;20374;-32
2023/03/18 01:15:06;;;;;;;7.18;3.38;;;;;;;14.06;52.56;96669.44;5042546;28;20431;-32
2023/03/18 01:17:32;;;;;;;6.22;3.53;;;;;;;13.96;52.74;96671.31;5041500;28;20059;-32
2023/03/18 01:19:57;;;;;;;7.55;2.97;;;;;;;14.27;52.14;96669.44;5042742;28;20418;-32
2023/03/18 01:22:23;;;;;;;7.63;3.75;;;;;;;14.37;51.58;96667.50;5039414;28;20032;-32
2023/03/18 01:24:48;;;;;;;6.68;3.65;;;;;;;14.22;52.08;96666.50;5043996;28;20023;-32
2023/03/18 01:27:14;;;;;;;5.32;3.10;;;;;;;14.12;52.37;96656.72;5037144;28;20029;-32
2023/03/18 01:29:39;;;;;;;6.88;3.40;;;;;;;14.08;52.35;96656.13;5044882;28;20051;-32
2023/03/18 01:32:05;;;;;;;7.22;3.83;;;;;;;14.21;52.42;96652.13;5036653;28;20025;-34
2023/03/18 01:34:31;;;;;;;8.40;3.35;;;;;;;14.10;52.68;96654.44;5040534;28;20025;-33
2023/03/18 01:36:57;;;;;;;9.00;3.60;;;;;;;14.18;52.55;96654.97;5048727;28;20085;-32
2023/03/18 01:39:23;;;;;;;5.78;3.58;;;;;;;14.22;52.07;96650.88;5035851;28;20032;-32
2023/03/18 01:41:48;;;;;;;8.63;3.72;;;;;;;14.11;52.41;96658.69;5039270;28;20098;-33
2023/03/18 01:44:18;;;;;;;9.07;3.92;;;;;;;14.25;52.25;96651.97;5042091;28;20052;-32
2023/03/18 01:46:48;;;;;;;6.57;3.72;;;;;;;14.30;51.94;96663.09;5041809;28;20018;-33
2023/03/18 01:49:23;;;;;;;5.63;3.72;;;;;;;14.38;51.65;96663.56;5044927;28;20094;-32
2023/03/18 01:51:56;;;;;;;8.18;3.40;;;;;;;14.25;52.29;96654.69;5045691;28;20481;-32
2023/03/18 01:54:23;;;;;;;8.95;4.30;;;;;;;14.38;51.79;96649.94;5043438;28;20079;-32
2023/03/18 01:56:50;;;;;;;5.78;4.60;;;;;;;14.25;52.10;96650.00;5041461;28;20068;-33
2023/03/18 01:59:17;;;;;;;7.93;4.20;;;;;;;14.29;51.84;96639.72;5033238;28;20365;-32
2023/03/18 02:01:55;;;;;;;9.82;4.43;;;;;;;13.95;52.66;96646.03;5043010;28;20462;-33
2023/03/18 02:04:24;;;;;;;8.63;4.40;;;;;;;14.02;52.73;96640.31;5044332;28;20025;-32
2023/03/18 02:06:50;;;;;;;10.02;4.75;;;;;;;14.13;52.50;96641.88;5041221;28;20032;-32
2023/03/18 02:09:16;;;;;;;7.07;3.90;;;;;;;14.09;52.66;96631.13;5039681;28;20428;-32
2023/03/18 02:11:44;;;;;;;7.35;4.47;;;;;;;14.05;52.76;96629.72;5036748;28;20361;-32
2023/03/18 02:14:13;;;;;;;8.65;4.10;;;;;;;14.34;51.88;96639.16;5044360;28;20028;-32
2023/03/18 02:16:46;;;;;;;5.93;4.55;;;;;;;14.31;52.07;96631.88;5036482;28;20055;-33
2023/03/18 02:19:37;;;;;;;6.43;4.25;;;;;;;14.20;52.16;96631.50;5037538;28;20088;-32
2023/03/18 02:22:22;;;;;;;9.23;4.70;;;;;;;14.26;52.03;96623.50;5034166;28;20438;-33
2023/03/18 02:25:01;;;;;;;7.22;4.88;;;;;;;14.28;51.96;96618.34;5040803;28;20025;-33
2023/03/18 02:27:31;;;;;;;10.10;5.18;;;;;;;13.97;52.61;96621.78;5038375;28;20024;-33
2023/03/18 02:30:00;;;;;;;7.13;4.85;;;;;;;14.13;52.34;96625.53;5042973;28;20214;-33
2023/03/18 02:32:27;;;;;;;7.63;5.07;;;;;;;14.21;52.32;96622.13;5037423;28;20028;-32
2023/03/18 02:34:55;;;;;;;9.32;6.03;;;;;;;13.99;52.61;96627.56;5043520;28;20480;-33
2023/03/18 02:37:20;;;;;;;9.55;5.40;;;;;;;14.02;52.41;96632.13;5041415;28;20032;-32
2023/03/18 02:39:46;;;;;;;9.40;5.40;;;;;;;13.84;52.85;96625.78;5046358;28;20017;-32
2023/03/18 02:42:13;;;;;;;8.07;5.35;;;;;;;14.07;51.65;96622.63;5035217;28;20378;-32
2023/03/18 02:44:42;;;;;;;10.25;5.63;;;;;;;13.81;52.37;96621.97;5043448;28;20079;-32
2023/03/18 02:47:15;;;;;;;10.10;5.05;;;;;;;13.91;52.40;96618.13;5043189;28;20112;-32
2023/03/18 02:49:41;;;;;;;12.73;4.60;;;;;;;13.80;52.76;96612.28;5044267;28;20523;-32
2023/03/18 02:52:07;;;;;;;9.82;5.07;;;;;;;13.71;53.19;96614.94;5036866;28;20040;-32
2023/03/18 02:54:33;;;;;;;9.65;5.60;;;;;;;13.84;52.67;96612.91;5042278;28;20029;-32
2023/03/18 02:56:59;;;;;;;11.32;5.47;;;;;;;13.92;52.49;96610.69;5043847;28;20021;-32
2023/03/18 02:59:25;;;;;;;8.90;5.13;;;;;;;13.98;52.32;96617.09;5042337;28;20022;-32
2023/03/18 03:01:52;;;;;;;8.95;5.97;;;;;;;13.95;52.09;96616.03;5036428;28;20021;-33
2023/03/18 03:04:20;;;;;;;12.70;5.57;;;;;;;13.75;52.75;96612.81;5044613;28;20075;-32
2023/03/18 03:06:46;;;;;;;8.70;5.55;;;;;;;13.90;52.76;96613.09;5040297;28;20100;-32
2023/03/18 03:09:15;;;;;;;8.80;5.63;;;;;;;14.00;52.19;96617.41;5038082;28;20107;-32
2023/03/18 03:11:42;;;;;;;11.07;6.18;;;;;;;13.83;52.39;96619.56;5034900;28;20033;-32
2023/03/18 03:14:09;;;;;;;11.07;5.85;;;;;;;13.73;52.67;96626.13;5039470;28;20068;-34
2023/03/18 03:16:35;;;;;;;11.65;7.10;;;;;;;13.74;52.65;96622.22;5033463;28;20089;-32
2023/03/18 03:19:01;;;;;;;9.27;6.55;;;;;;;13.85;52.22;96622.59;5041039;28;20009;-32
2023/03/18 03:21:27;;;;;;;11.63;6.50;;;;;;;13.77;52.58;96618.59;5033274;28;20171;-32
2023/03/18 03:23:53;;;;;;;10.98;6.45;;;;;;;13.80;52.43;96619.69;5040312;28;20483;-33
2023/03/18 03:26:19;;;;;;;16.60;6.78;;;;;;;13.63;53.39;96624.53;5043390;28;20510;-33
2023/03/18 03:28:45;;;;;;;10.10;6.55;;;;;;;13.78;52.76;96622.84;5043500;28;20033;-32
2023/03/18 03:31:11;;;;;;;11.48;6.60;;;;;;;13.62;53.17;96620.28;5035100;28;20043;-32
2023/03/18 03:33:42;;;;;;;11.20;6.80;;;;;;;13.89;52.82;96625.97;5038471;28;20091;-32
2023/03/18 03:36:11;;;;;;;9.57;6.03;;;;;;;13.81;52.18;96621.97;5040480;28;20025;-32
2023/03/18 03:38:37;;;;;;;12.48;6.82;;;;;;;13.76;52.55;96625.25;5043173;28;20051;-33
2023/03/18 03:41:04;;;;;;;11.32;7.05;;;;;;;13.53;53.13;96620.97;5042373;28;20479;-32
2023/03/18 03:43:31;;;;;;;10.70;6.07;;;;;;;13.67;52.93;96608.84;5040348;28;20021;-32
2023/03/18 03:45:58;;;;;;;10.07;6.75;;;;;;;13.59;53.08;96610.28;5041756;28;20017;-32
2023/03/18 03:48:23;;;;;;;11.48;6.75;;;;;;;13.60;52.72;96617.25;5042385;28;20049;-32
2023/03/18 03:50:50;;;;;;;8.75;5.97;;;;;;;13.61;53.02;96610.59;5041179;28;20420;-33
2023/03/18 03:53:15;;;;;;;11.25;6.20;;;;;;;13.76;52.86;96613.59;5046785;28;20025;-32
2023/03/18 03:55:41;;;;;;;11.00;5.55;;;;;;;13.74;53.11;96616.75;5043594;28;20022;-33
2023/03/18 03:58:08;;;;;;;12.35;5.50;;;;;;;13.77;52.79;96626.78;5036633;28;20021;-32
2023/03/18 04:00:35;;;;;;;11.02;5.40;;;;;;;13.70;52.99;96624.31;5044757;28;20155;-32
2023/03/18 04:03:01;;;;;;;10.65;5.75;;;;;;;13.62;53.18;96623.00;5042060;28;20374;-32
2023/03/18 04:05:28;;;;;;;10.52;5.47;;;;;;;13.69;53.24;96616.56;5050607;28;20024;-32
2023/03/18 04:07:54;;;;;;;9.73;5.63;;;;;;;13.55;53.24;96624.03;5038871;28;20024;-32
2023/03/18 04:10:20;;;;;;;11.65;5.88;;;;;;;13.67;52.83;96614.28;5040472;28;20369;-32
2023/03/18 04:12:46;;;;;;;8.98;4.63;;;;;;;13.58;53.10;96625.13;5043641;28;20052;-32
2023/03/18 04:15:15;;;;;;;8.57;4.20;;;;;;;13.78;53.66;96625.59;5047660;28;20029;-34
2023/03/18 04:17:40;;;;;;;6.82;4.10;;;;;;;13.76;53.48;96617.06;5045863;28;20029;-32
2023/03/18 04:20:06;;;;;;;7.15;4.35;;;;;;;13.71;53.33;96619.63;5043017;28;20089;-32
2023/03/18 04:22:32;;;;;;;9.60;3.67;;;;;;;13.71;53.57;96620.38;5042061;28;20586;-32
2023/03/18 04:24:59;;;;;;;4.53;2.67;;;;;;;13.72;53.91;96619.19;5044065;28;20033;-32
2023/03/18 04:27:26;;;;;;;7.15;2.75;;;;;;;13.76;53.91;96619.03;5040622;28;20052;-32
2023/03/18 04:29:52;;;;;;;4.68;3.30;;;;;;;13.86;53.25;96620.63;5045700;28;20021;-33
2023/03/18 04:32:18;;;;;;;6.18;3.70;;;;;;;13.85;53.60;96625.31;5046328;28;20047;-32
2023/03/18 04:34:43;;;;;;;10.25;3.83;;;;;;;13.78;53.89;96624.81;5040246;28;20032;-33
2023/03/18 04:37:09;;;;;;;5.75;3.85;;;;;;;13.83;53.27;96622.31;5043499;28;20032;-32
2023/03/18 04:39:34;;;;;;;6.13;3.63;;;;;;;13.70;53.65;96627.03;5042426;28;20013;-34
2023/03/18 04:42:00;;;;;;;5.93;3.47;;;;;;;13.87;52.91;96628.38;5042531;28;20022;-32
2023/03/18 04:44:25;;;;;;;6.78;4.00;;;;;;;13.85;53.05;96632.75;5045211;28;20072;-32
2023/03/18 04:46:54;;;;;;;7.60;3.90;;;;;;;13.76;53.16;96619.81;5045884;28;20025;-33
2023/03/18 04:49:20;;;;;;;5.22;3.28;;;;;;;13.72;53.35;96634.78;5043788;28;20484;-32
2023/03/18 04:51:46;;;;;;;5.70;3.17;;;;;;;13.77;52.83;96634.97;5042426;28;20067;-32
2023/03/18 04:54:12;;;;;;;6.00;3.15;;;;;;;13.53;53.44;96644.75;5043369;28;20029;-32
2023/03/18 04:56:38;;;;;;;6.97;3.42;;;;;;;13.63;53.56;96636.19;5037935;28;20033;-33
2023/03/18 04:59:04;;;;;;;8.70;3.30;;;;;;;13.68;53.04;96637.63;5046784;28;20055;-32
2023/03/18 05:01:31;;;;;;;6.10;3.50;;;;;;;13.58;53.22;96636.78;5041070;28;20032;-32
2023/03/18 05:03:56;;;;;;;13.05;4.13;;;;;;;13.61;53.22;96646.00;5038876;28;20033;-33
2023/03/18 05:06:27;;;;;;;5.00;3.05;;;;;;;13.59;53.34;96638.31;5037460;28;20028;-32
2023/03/18 05:08:52;;;;;;;7.13;3.00;;;;;;;13.56;53.60;96627.50;5035803;28;20017;-33
2023/03/18 05:11:20;;;;;;;4.82;2.90;;;;;;;13.52;53.73;96635.03;5042069;28;20036;-32
2023/03/18 05:13:46;;;;;;;5.60;2.97;;;;;;;13.65;52.97;96633.03;5049111;28;20484;-32
2023/03/18 05:16:12;;;;;;;5.22;3.55;;;;;;;13.78;52.67;96624.81;5045989;28;20499;-34
2023/03/18 05:18:38;;;;;;;6.78;3.13;;;;;;;13.68;52.83;96629.44;5044965;28;20109;-32
2023/03/18 05:21:04;;;;;;;5.40;2.88;;;;;;;13.65;53.43;96627.59;5041936;28;20473;-32
2023/03/18 05:23:30;;;;;;;8.90;3.38;;;;;;;13.61;53.17;96633.16;5040596;28;20384;-32
2023/03/18 05:25:56;;;;;;;6.43;2.55;;;;;;;13.72;53.27;96629.31;5042967;28;20107;-32
2023/03/18 05:28:22;;;;;;;7.90;2.75;;;;;;;13.63;53.24;96632.72;5041644;28;20508;-32
2023/03/18 05:30:47;;;;;;;4.57;3.13;;;;;;;13.72;52.80;96630.09;5040604;28;20130;-32
2023/03/18 05:33:13;;;;;;;4.78;2.60;;;;;;;13.73;52.65;96637.03;5044161;28;20072;-33
2023/03/18 05:35:39;;;;;;;5.63;2.75;;;;;;;13.51;53.36;96634.28;5040170;28;20028;-32
2023/03/18 05:38:05;;;;;;;5.20;2.90;;;;;;;13.44;53.42;96644.66;5040741;28;20518;-32
2023/03/18 05:40:31;;;;;;;5.20;2.45;;;;;;;13.71;52.76;96644.91;5041796;28;20028;-32
2023/03/18 05:42:56;;;;;;;6.40;2.47;;;;;;;13.51;53.42;96638.97;5041712;28;20024;-32
2023/03/18 05:45:22;;;;;;;6.57;2.80;;;;;;;13.62;53.12;96642.09;5034991;28;20465;-32
2023/03/18 05:47:48;;;;;;;9.07;2.90;;;;;;;13.64;53.13;96645.91;5041147;28;20037;-32
2023/03/18 05:50:13;;;;;;;5.20;2.80;;;;;;;13.48;53.67;96642.56;5041784;28;20425;-32
2023/03/18 05:52:39;;;;;;;10.05;2.88;;;;;;;13.60;53.71;96647.22;5034491;28;20496;-32
2023/03/18 05:55:05;;;;;;;5.53;2.92;;;;;;;13.66;53.35;96640.78;5041564;28;20531;-32
2023/03/18 05:57:31;;;;;;;7.03;3.10;;;;;;;13.76;53.22;96646.31;5041407;28;20021;-32
2023/03/18 05:59:57;;;;;;;7.53;3.28;;;;;;;13.73;53.13;96647.94;5038399;28;20013;-33
2023/03/18 06:02:23;;;;;;;7.35;3.08;;;;;;;13.59;53.62;96632.09;5037089;28;20029;-32
2023/03/18 06:04:49;;;;;;;7.18;3.20;;;;;;;13.75;53.13;96633.88;5041921;28;20021;-32
2023/03/18 06:07:14;;;;;;;10.65;4.20;;;;;;;13.80;52.90;96631.34;5041546;28;20033;-33
2023/03/18 06:09:40;;;;;;;5.88;2.63;;;;;;;13.73;53.38;96631.59;5040446;28;20036;-32
2023/03/18 06:12:06;;;;;;;4.28;2.58;;;;;;;13.86;53.19;96637.00;5041069;28;20036;-32
2023/03/18 06:14:31;;;;;;;5.68;2.53;;;;;;;13.67;53.63;96630.63;5041371;28;20079;-32
2023/03/18 06:16:58;;;;;;;4.40;2.75;;;;;;;13.86;53.03;96629.56;5035814;28;20370;-32
2023/03/18 06:19:24;;;;;;;8.30;2.65;;;;;;;13.64;53.46;96628.78;5037984;28;20037;-34
2023/03/18 06:21:51;;;;;;;5.75;2.45;;;;;;;13.65;53.69;96625.63;5041340;28;20022;-33
2023/03/18 06:24:18;;;;;;;7.53;3.00;;;;;;;13.82;53.21;96615.31;5044030;28;20460;-32
2023/03/18 06:26:43;;;;;;;5.13;3.00;;;;;;;13.78;53.30;96622.09;5043803;28;20033;-32
2023/03/18 06:29:09;;;;;;;5.35;2.97;;;;;;;13.98;52.67;96626.03;5035023;28;20491;-33
2023/03/18 06:31:36;;;;;;;5.30;2.90;;;;;;;13.89;52.44;96631.41;5041355;28;20503;-32
2023/03/18 06:34:02;;;;;;;7.90;3.10;;;;;;;14.05;52.34;96625.03;5042519;28;20018;-32
2023/03/18 06:36:28;;;;;;;7.78;3.53;;;;;;;13.74;53.24;96624.94;5040845;28;20152;-32
2023/03/18 06:38:54;;;;;;;7.68;3.53;;;;;;;13.98;53.04;96631.47;5040897;28;20104;-32
2023/03/18 06:41:20;;;;;;;8.38;3.47;;;;;;;13.84;53.64;96631.25;5041007;28;20057;-32
2023/03/18 06:43:49;;;;;;;6.05;2.85;;;;;;;13.90;53.75;96624.75;5040823;28;20044;-32
2023/03/18 06:46:15;;;;;;;8.55;3.00;;;;;;;14.08;52.78;96628.84;5040761;28;20021;-32
2023/03/18 06:48:40;;;;;;;5.03;2.90;;;;;;;13.90;53.38;96638.41;5040408;28;20083;-32
2023/03/18 06:51:06;;;;;;;6.38;3.20;;;;;;;13.76;53.91;96625.25;5039979;28;20024;-32
2023/03/18 06:53:35;;;;;;;9.13;3.70;;;;;;;14.12;52.76;96632.19;5034734;28;20121;-32
2023/03/18 06:56:02;;;;;;;6.93;3.38;;;;;;;13.88;53.40;96629.91;5043291;28;20074;-33
2023/03/18 06:58:27;;;;;;;7.38;4.00;;;;;;;13.92;53.50;96638.72;5041774;28;20041;-33
2023/03/18 07:00:53;;;;;;;4.85;2.88;;;;;;;14.19;52.19;96637.41;5040701;28;20021;-33
2023/03/18 07:03:20;;;;;;;11.00;3.42;;;;;;;14.00;52.10;96648.16;5040716;28;20030;-32
2023/03/18 07:05:47;;;;;;;7.40;3.50;;;;;;;14.19;51.26;96643.63;5042110;28;20110;-33
2023/03/18 07:08:14;;;;;;;8.40;4.03;;;;;;;14.06;51.82;96647.59;5038049;28;20466;-32
2023/03/18 07:10:41;;;;;;;9.05;4.68;;;;;;;14.33;51.17;96639.63;5047798;28;20033;-34
2023/03/18 07:13:08;;;;;;;7.32;3.30;;;;;;;14.11;51.99;96649.75;5044033;28;20021;-32
2023/03/18 07:15:33;;;;;;;7.25;4.20;;;;;;;14.21;51.32;96648.63;5043406;28;20128;-32
2023/03/18 07:17:59;;;;;;;8.93;4.95;;;;;;;14.08;52.58;96653.38;5042760;28;20112;-32
2023/03/18 07:20:25;;;;;;;16.23;7.68;;;;;;;14.43;51.64;96660.31;5043429;28;20039;-32
2023/03/18 07:22:50;;;;;;;15.57;7.88;;;;;;;14.27;52.20;96663.22;5045310;28;20025;-32
2023/03/18 07:25:16;;;;;;;12.88;7.38;;;;;;;14.20;52.94;96660.75;5040407;28;20025;-32
2023/03/18 07:27:42;;;;;;;15.38;6.85;;;;;;;14.38;52.20;96664.34;5040918;28;20025;-32
2023/03/18 07:30:08;;;;;;;13.85;7.60;;;;;;;14.48;52.30;96665.19;5045183;28;20034;-32
2023/03/18 07:32:35;;;;;;;15.13;7.13;;;;;;;14.22;52.29;96661.03;5047083;28;20029;-34
2023/03/18 07:35:03;;;;;;;11.80;6.18;;;;;;;14.40;51.89;96671.34;5037610;28;20436;-33
2023/03/18 07:37:29;;;;;;;12.55;5.82;;;;;;;14.35;51.81;96667.19;5046013;28;20048;-32
2023/03/18 07:39:55;;;;;;;10.15;5.18;;;;;;;14.27;51.04;96676.84;5050688;28;20056;-32
2023/03/18 07:42:21;;;;;;;9.25;4.30;;;;;;;14.50;50.22;96672.94;5044651;28;20128;-32
2023/03/18 07:44:46;;;;;;;7.10;3.83;;;;;;;14.28;50.04;96670.19;5044103;28;20031;-32
2023/03/18 07:47:13;;;;;;;7.03;3.55;;;;;;;14.54;48.89;96670.84;5043676;28;20401;-33
2023/03/18 07:49:40;;;;;;;7.43;3.40;;;;;;;14.57;48.46;96683.59;5046965;28;20017;-32
2023/03/18 07:52:06;;;;;;;5.68;3.05;;;;;;;14.57;48.10;96673.44;5047245;28;20041;-32
2023/03/18 07:54:32;;;;;;;6.03;2.90;;;;;;;14.49;48.13;96677.63;5037133;28;20080;-33
2023/03/18 07:56:57;;;;;;;5.32;3.20;;;;;;;14.38;47.92;96669.03;5043808;28;20464;-33
2023/03/18 07:59:23;;;;;;;7.45;2.90;;;;;;;14.29;47.17;96690.81;5043905;28;20025;-33
2023/03/18 08:01:49;;;;;;;7.13;2.92;;;;;;;14.39;47.25;96689.66;5037792;28;20434;-32
2023/03/18 08:04:16;;;;;;;3.33;2.63;;;;;;;14.55;46.40;96684.03;5047852;28;20377;-32
2023/03/18 08:06:42;;;;;;;7.85;3.00;;;;;;;14.41;46.96;96687.28;5043461;28;20080;-32
2023/03/18 08:09:07;;;;;;;5.57;2.38;;;;;;;14.53;47.04;96683.72;5040561;28;20392;-32
2023/03/18 08:11:33;;;;;;;6.18;2.75;;;;;;;14.58;46.56;96683.16;5046258;28;20030;-32
2023/03/18 08:13:59;;;;;;;6.47;3.00;;;;;;;14.50;46.81;96681.88;5043409;28;20029;-32
2023/03/18 08:16:25;;;;;;;4.03;2.40;;;;;;;14.31;46.26;96691.13;5036238;28;20033;-33
2023/03/18 08:18:52;;;;;;;4.88;2.45;;;;;;;14.44;46.48;96689.13;5043858;28;20025;-34
2023/03/18 08:21:18;;;;;;;4.20;2.60;;;;;;;14.46;46.49;96684.00;5036541;28;20033;-33
2023/03/18 08:23:43;;;;;;;5.75;2.85;;;;;;;14.24;47.02;96685.91;5042723;28;20049;-32
2023/03/18 08:26:09;;;;;;;5.07;3.00;;;;;;;14.43;46.17;96693.06;5045738;28;20056;-32
2023/03/18 08:28:35;;;;;;;7.30;2.90;;;;;;;14.63;46.78;96690.75;5046336;28;20028;-32
2023/03/18 08:31:02;;;;;;;8.07;2.90;;;;;;;14.74;46.41;96688.38;5037622;28;20025;-32
2023/03/18 08:33:27;;;;;;;5.30;3.40;;;;;;;14.77;46.85;96688.69;5040710;28;20555;-33
2023/03/18 08:35:54;;;;;;;5.45;2.55;;;;;;;14.86;46.88;96694.19;5042602;28;20029;-32
2023/03/18 08:38:22;;;;;;;5.32;2.60;;;;;;;14.94;46.50;96696.22;5048123;28;20030;-32
2023/03/18 08:40:47;;;;;;;6.63;4.13;;;;;;;14.83;46.86;96698.59;5041404;28;20013;-33
2023/03/18 08:43:13;;;;;;;6.18;3.22;;;;;;;14.86;46.75;96692.22;5043234;28;20051;-32
2023/03/18 08:45:38;;;;;;;5.80;2.80;;;;;;;14.99;46.83;96692.91;5042680;28;20075;-33
2023/03/18 08:48:05;;;;;;;6.28;3.10;;;;;;;15.09;45.94;96678.06;5042700;28;20041;-33
2023/03/18 08:50:30;;;;;;;5.53;2.80;;;;;;;15.19;46.13;96691.78;5037391;28;20033;-32
2023/03/18 08:52:57;;;;;;;7.72;2.70;;;;;;;15.16;45.96;96679.00;5040616;28;20021;-33
2023/03/18 08:55:29;;;;;;;5.70;2.60;;;;;;;15.25;45.62;96687.22;5042499;28;20082;-32
2023/03/18 08:57:54;;;;;;;4.13;2.40;;;;;;;15.03;45.83;96692.78;5041541;28;20067;-33
2023/03/18 09:00:20;;;;;;;4.35;2.30;;;;;;;15.36;45.76;96688.31;5042501;28;20017;-32
2023/03/18 09:02:46;;;;;;;4.50;2.40;;;;;;;15.35;45.45;96692.28;5043110;28;20104;-32
2023/03/18 09:05:12;;;;;;;4.93;2.70;;;;;;;15.30;45.83;96703.06;5048069;28;20380;-32
2023/03/18 09:07:38;;;;;;;7.60;2.97;;;;;;;15.25;45.77;96698.94;5043813;28;20024;-33
2023/03/18 09:10:05;;;;;;;4.15;2.10;;;;;;;15.24;45.56;96700.13;5041882;28;20389;-33
2023/03/18 09:12:30;;;;;;;6.47;2.58;;;;;;;15.44;45.90;96697.78;5049646;28;20021;-33
2023/03/18 09:14:56;;;;;;;7.22;2.60;;;;;;;15.37;46.03;96703.50;5034796;28;20463;-33
2023/03/18 09:17:22;;;;;;;4.57;2.33;;;;;;;15.26;45.45;96697.72;5041789;28;20032;-33
2023/03/18 09:19:47;;;;;;;4.53;2.47;;;;;;;15.41;45.19;96703.38;5041901;28;20021;-32
2023/03/18 09:22:13;;;;;;;6.90;2.83;;;;;;;15.54;45.23;96706.00;5038503;28;20024;-33
2023/03/18 09:24:39;;;;;;;4.47;2.42;;;;;;;15.42;45.27;96704.91;5045760;28;20025;-33
2023/03/18 09:27:05;;;;;;;4.93;2.55;;;;;;;15.42;45.40;96697.47;5043854;28;20036;-33
2023/03/18 09:29:30;;;;;;;5.25;3.15;;;;;;;15.41;45.40;96703.38;5040634;28;20448;-32
2023/03/18 09:31:56;;;;;;;5.07;2.88;;;;;;;15.44;45.97;96695.06;5041702;28;20025;-32
2023/03/18 09:34:22;;;;;;;6.38;3.25;;;;;;;15.26;45.57;96697.72;5042227;28;20520;-35
2023/03/18 09:36:49;;;;;;;4.78;2.70;;;;;;;15.39;45.41;96698.38;5041539;28;20025;-32
2023/03/18 09:39:17;;;;;;;8.80;2.72;;;;;;;15.62;45.42;96710.00;5042103;28;20045;-33
2023/03/18 09:42:11;;;;;;;5.70;3.08;;;;;;;15.59;45.23;96711.66;5043818;28;20029;-33
2023/03/18 09:44:37;;;;;;;6.93;2.67;;;;;;;15.60;45.18;96710.44;5045128;28;20027;-33
2023/03/18 09:47:31;;;;;;;5.97;3.05;;;;;;;15.60;45.60;96709.66;5044956;28;20467;-32
2023/03/18 09:50:09;;;;;;;9.02;3.05;;;;;;;15.50;45.75;96716.31;5041550;28;20103;-33
2023/03/18 09:52:49;;;;;;;4.63;2.85;;;;;;;15.56;45.38;96717.28;5044945;28;20039;-33
2023/03/18 09:55:40;;;;;;;4.97;2.70;;;;;;;15.56;45.70;96715.31;5037195;28;20171;-32
2023/03/18 09:58:22;;;;;;;4.68;2.45;;;;;;;15.41;45.87;96717.81;5042333;28;20018;-32
2023/03/18 10:00:52;;;;;;;6.30;2.70;;;;;;;15.87;45.12;96723.41;5044426;28;20349;-33
2023/03/18 10:03:27;;;;;;;5.47;2.63;;;;;;;15.75;45.27;96711.38;5037984;28;20040;-32
2023/03/18 10:05:59;;;;;;;5.10;2.70;;;;;;;15.55;45.12;96718.50;5048743;28;20024;-32
2023/03/18 10:08:37;;;;;;;5.63;2.67;;;;;;;15.61;45.21;96711.19;5048301;28;20025;-33
2023/03/18 10:11:10;;;;;;;4.70;2.60;;;;;;;15.69;44.74;96717.91;5041070;28;20029;-33
2023/03/18 10:13:44;;;;;;;4.03;2.30;;;;;;;15.70;44.49;96716.69;5048317;28;20476;-32
2023/03/18 10:16:16;;;;;;;3.65;2.00;;;;;;;15.62;44.72;96729.13;5040769;28;20037;-33
2023/03/18 10:18:43;;;;;;;3.63;2.22;;;;;;;15.76;44.92;96723.84;5041047;28;20025;-33
2023/03/18 10:21:41;;;;;;;7.93;2.47;;;;;;;15.66;45.13;96721.53;5044113;28;20380;-33
2023/03/18 10:24:37;;;;;;;5.88;2.50;;;;;;;15.62;45.02;96718.19;5042598;28;20444;-34
2023/03/18 10:27:31;;;;;;;4.75;2.92;;;;;;;15.56;45.16;96714.53;5041658;28;20021;-34
2023/03/18 10:30:18;;;;;;;5.88;2.25;;;;;;;15.77;44.97;96710.94;5044781;28;20052;-32
2023/03/18 10:33:10;;;;;;;3.83;2.17;;;;;;;15.78;44.57;96720.66;5041166;28;20037;-33
2023/03/18 10:36:02;;;;;;;4.22;2.67;;;;;;;15.88;44.60;96713.22;5040932;28;20021;-33
2023/03/18 10:38:36;;;;;;;4.93;2.33;;;;;;;15.73;44.97;96715.78;5040624;28;20025;-33
2023/03/18 10:41:17;;;;;;;4.03;2.45;;;;;;;15.72;45.08;96714.25;5040724;28;20021;-33
2023/03/18 10:43:44;;;;;;;4.07;2.25;;;;;;;15.85;44.38;96714.88;5040603;28;20021;-33
2023/03/18 10:46:14;;;;;;;4.35;2.35;;;;;;;15.75;44.94;96708.66;5033127;28;20032;-33
2023/03/18 10:49:16;;;;;;;6.55;3.10;;;;;;;15.91;44.65;96702.13;5040898;28;20400;-32
2023/03/18 10:52:04;;;;;;;5.47;2.50;;;;;;;15.82;44.92;96700.13;5044067;28;20029;-32
2023/03/18 10:54:40;;;;;;;8.32;2.80;;;;;;;15.81;45.01;96703.34;5041454;28;20021;-33
2023/03/18 10:57:13;;;;;;;5.70;2.40;;;;;;;15.89;44.45;96703.81;5042934;28;20021;-33
2023/03/18 10:59:39;;;;;;;7.80;3.35;;;;;;;15.86;44.59;96702.72;5035600;28;20030;-33
2023/03/18 11:02:25;;;;;;;8.30;2.80;;;;;;;15.78;44.83;96709.72;5038828;28;20036;-34
2023/03/18 11:05:03;;;;;;;3.88;2.47;;;;;;;15.81;44.49;96697.88;5040952;28;20469;-33
2023/03/18 11:07:28;;;;;;;4.03;2.53;;;;;;;15.92;44.28;96706.41;5040382;28;20026;-33
2023/03/18 11:10:10;;;;;;;3.97;2.47;;;;;;;15.84;44.15;96702.44;5042837;28;20017;-33
2023/03/18 11:12:35;;;;;;;5.35;2.72;;;;;;;16.06;44.36;96694.09;5042591;28;20094;-32
2023/03/18 11:15:09;;;;;;;5.75;2.92;;;;;;;15.86;44.82;96705.47;5040602;28;20469;-32
2023/03/18 11:17:37;;;;;;;5.25;2.38;;;;;;;15.87;44.73;96696.06;5039902;28;20059;-32
2023/03/18 11:20:06;;;;;;;7.00;2.17;;;;;;;15.88;44.99;96694.84;5043366;28;20108;-32
2023/03/18 11:22:34;;;;;;;5.68;2.30;;;;;;;15.85;45.03;96687.53;5044683;28;20029;-33
2023/03/18 11:25:13;;;;;;;7.40;3.60;;;;;;;15.89;45.18;96690.91;5041248;28;20025;-32
2023/03/18 11:27:51;;;;;;;8.15;4.80;;;;;;;16.06;45.00;96681.19;5043492;28;20024;-34
2023/03/18 11:30:25;;;;;;;7.60;3.83;;;;;;;16.04;45.11;96691.06;5043045;28;20048;-32
2023/03/18 11:33:04;;;;;;;7.40;3.60;;;;;;;15.98;45.42;96690.88;5043797;28;20053;-33
2023/03/18 11:35:42;;;;;;;7.57;3.35;;;;;;;16.05;45.37;96684.38;5040408;28;20075;-33
2023/03/18 11:38:18;;;;;;;4.60;2.80;;;;;;;16.08;45.84;96686.19;5040077;28;20025;-32